Little Walnut Village, New Mexico
Current Conditions -  °F | °C
As of 10:55 PM on Thursday 30 Oct 2014 (Local Time) from KSVC Reporting Station
Clear Clear  
Wind Chill: 57°   Ceiling: Unl
Heat Index: 57°   Visibility: 10mi
Dew Point: 28°   Wind: 0mph
Humidity: 33%   Direction: NA
Pressure: 30.31"   Gusts: NA
Location:  33.0124°N, 108.286°W
Report Text: KSVC 310455Z AUTO 00000KT 10SM CLR 14/M02 A3031 RMK AO2
Loading
Personal Weather Stations






























Interactive Weather Map
Tropical Storm Tracking
New forecast layout! Learn more

10-Day Weather Forecast

Advertisements
Track Severe Weather on mobile